Aviation Digital Data Service (ADDS)

Output produced by METARs form (0156 UTC 22 January 2017)
found at http://www.aviationweather.gov/adds/metars/
 
KBOS 212341Z 2200/2306 26009KT P6SM BKN035 OVC250 
     FM220300 26006KT P6SM SCT008 OVC040 
     FM221100 VRB03KT 4SM BR OVC040 
     FM221400 03004KT P6SM OVC025 
     FM221800 05008KT P6SM BKN010 
     FM222200 06010G19KT P6SM VCSH OVC010 
     FM230300 06012G24KT P6SM VCSH OVC020 
     FM230500 06012G25KT P6SM VCSH OVC015